Time;durP1;ratioP1;P1;durP2;ratioP2;P2;SDS_P1;SDS_P2;PMS_P1;PMS_P2;Temp;Humidity;BMP_temperature;BMP_pressure;BME280_temperature;BME280_humidity;BME280_pressure;Samples;Min_cycle;Max_cycle;Signal;HPM_P1;HPM_P2
2022/12/01 00:02:10;;;;;;;59.88;29.20;;;;;;;;;;5022070;28;20102;-78
2022/12/01 00:04:36;;;;;;;71.10;29.73;;;;;;;;;;5031522;28;20092;-78
2022/12/01 00:07:02;;;;;;;69.85;30.40;;;;;;;;;;5034473;28;20135;-78
2022/12/01 00:12:13;;;;;;;68.22;31.38;;;;;;;;;;5017600;28;20137;-78
2022/12/01 00:14:39;;;;;;;71.38;30.70;;;;;;;;;;5017212;28;20054;-78
2022/12/01 00:17:05;;;;;;;71.55;33.00;;;;;;;;;;5027111;28;20061;-78
2022/12/01 00:19:31;;;;;;;75.55;32.78;;;;;;;;;;5024626;28;20046;-78
2022/12/01 00:21:57;;;;;;;73.47;30.48;;;;;;;;;;5036909;28;20052;-78
2022/12/01 00:24:24;;;;;;;70.75;30.65;;;;;;;;;;5037037;28;20045;-78
2022/12/01 00:26:50;;;;;;;71.60;30.27;;;;;;;;;;5036236;28;20128;-78
2022/12/01 00:29:16;;;;;;;72.20;30.40;;;;;;;;;;5035682;28;20042;-78
2022/12/01 00:31:42;;;;;;;71.85;31.45;;;;;;;;;;5036595;28;20128;-78
2022/12/01 00:34:20;;;;;;;73.28;30.77;;;;;;;;;;5036925;28;20042;-78
2022/12/01 00:36:46;;;;;;;66.32;30.38;;;;;;;;;;5036934;28;20049;-78
2022/12/01 00:39:12;;;;;;;72.53;30.20;;;;;;;;;;5036204;28;20078;-78
2022/12/01 00:41:38;;;;;;;68.25;29.30;;;;;;;;;;5036963;28;20050;-78
2022/12/01 00:44:04;;;;;;;69.05;30.25;;;;;;;;;;5035142;28;20056;-78
2022/12/01 00:46:30;;;;;;;73.00;30.92;;;;;;;;;;5025586;28;20046;-78
2022/12/01 00:48:56;;;;;;;70.22;31.48;;;;;;;;;;5036494;28;20053;-78
2022/12/01 00:51:23;;;;;;;74.07;31.35;;;;;;;;;;5032477;28;20034;-78
2022/12/01 00:53:49;;;;;;;70.78;30.35;;;;;;;;;;5016782;28;20041;-78
2022/12/01 00:56:15;;;;;;;76.38;32.10;;;;;;;;;;5030020;28;20046;-78
2022/12/01 00:58:41;;;;;;;70.53;31.45;;;;;;;;;;5036173;28;20415;-78
2022/12/01 01:01:07;;;;;;;78.32;31.77;;;;;;;;;;5036331;28;20038;-78
2022/12/01 01:03:33;;;;;;;76.25;31.60;;;;;;;;;;5034999;28;20053;-78
2022/12/01 01:06:04;;;;;;;66.07;29.17;;;;;;;;;;5034372;28;20500;-78
2022/12/01 01:08:30;;;;;;;68.30;29.05;;;;;;;;;;5028446;28;20049;-78
2022/12/01 01:10:58;;;;;;;69.80;29.05;;;;;;;;;;5027870;28;20041;-78
2022/12/01 01:13:24;;;;;;;62.78;28.95;;;;;;;;;;5034825;28;20041;-78
2022/12/01 01:16:04;;;;;;;61.78;28.48;;;;;;;;;;5016989;28;20100;-78
2022/12/01 01:18:31;;;;;;;67.90;31.15;;;;;;;;;;5030404;28;20581;-78
2022/12/01 01:20:59;;;;;;;71.43;30.25;;;;;;;;;;5034557;28;20046;-78
2022/12/01 01:23:25;;;;;;;67.97;30.77;;;;;;;;;;5035517;28;20088;-78
2022/12/01 01:25:52;;;;;;;65.85;29.25;;;;;;;;;;5023281;28;20111;-78
2022/12/01 01:28:20;;;;;;;64.60;27.67;;;;;;;;;;5015755;28;20372;-78
2022/12/01 01:30:46;;;;;;;69.13;29.98;;;;;;;;;;5035981;28;20041;-78
2022/12/01 01:33:12;;;;;;;67.30;30.17;;;;;;;;;;5036030;28;20092;-78
2022/12/01 01:35:38;;;;;;;73.65;30.98;;;;;;;;;;5035610;28;20049;-78
2022/12/01 01:38:04;;;;;;;70.50;29.95;;;;;;;;;;5035502;28;20037;-78
2022/12/01 01:40:30;;;;;;;69.25;30.20;;;;;;;;;;5035213;28;20037;-78
2022/12/01 01:42:57;;;;;;;73.70;30.13;;;;;;;;;;5034259;28;20127;-78
2022/12/01 01:45:24;;;;;;;83.28;32.20;;;;;;;;;;5035506;28;20100;-78
2022/12/01 01:47:52;;;;;;;70.85;30.08;;;;;;;;;;5035434;28;20408;-78
2022/12/01 01:50:20;;;;;;;72.07;29.77;;;;;;;;;;5035573;28;20146;-78
2022/12/01 01:52:47;;;;;;;72.60;30.45;;;;;;;;;;5035148;28;20495;-78
2022/12/01 01:55:14;;;;;;;73.18;30.20;;;;;;;;;;5035366;28;20128;-78
2022/12/01 01:57:40;;;;;;;72.80;29.80;;;;;;;;;;5034523;28;20382;-78
2022/12/01 02:00:08;;;;;;;72.18;29.90;;;;;;;;;;5035114;28;20049;-78
2022/12/01 02:02:39;;;;;;;72.18;30.67;;;;;;;;;;5034581;28;20041;-78
2022/12/01 02:05:09;;;;;;;83.45;32.47;;;;;;;;;;5033335;28;20104;-78
2022/12/01 02:07:36;;;;;;;69.30;29.92;;;;;;;;;;5034945;28;20119;-78
2022/12/01 02:10:03;;;;;;;66.30;29.80;;;;;;;;;;5030336;28;20053;-78
2022/12/01 02:12:47;;;;;;;77.93;31.30;;;;;;;;;;5022183;28;20099;-78
2022/12/01 02:15:32;;;;;;;74.00;32.60;;;;;;;;;;5033357;28;20053;-78
2022/12/01 02:18:17;;;;;;;78.10;31.63;;;;;;;;;;5032699;28;20488;-79
2022/12/01 02:20:43;;;;;;;71.25;31.40;;;;;;;;;;5015416;28;20054;-78
2022/12/01 02:23:19;;;;;;;78.53;33.45;;;;;;;;;;5014444;28;20042;-78
2022/12/01 02:25:53;;;;;;;75.20;32.38;;;;;;;;;;5021021;28;20052;-78
2022/12/01 02:28:25;;;;;;;79.10;34.30;;;;;;;;;;5033386;28;20526;-78
2022/12/01 02:30:51;;;;;;;80.47;33.47;;;;;;;;;;5036763;28;20037;-78
2022/12/01 02:33:24;;;;;;;85.97;32.15;;;;;;;;;;5038913;28;20073;-78
2022/12/01 02:36:02;;;;;;;78.70;32.10;;;;;;;;;;5021236;28;20392;-78
2022/12/01 02:38:37;;;;;;;73.95;31.60;;;;;;;;;;5018831;28;20504;-78
2022/12/01 02:41:03;;;;;;;78.80;32.13;;;;;;;;;;5033482;28;20045;-78
2022/12/01 02:43:41;;;;;;;77.55;31.13;;;;;;;;;;5034372;28;20582;-78
2022/12/01 02:46:30;;;;;;;69.80;29.77;;;;;;;;;;5034399;28;20116;-78
2022/12/01 02:48:58;;;;;;;73.07;31.80;;;;;;;;;;5030698;28;20072;-78
2022/12/01 02:51:27;;;;;;;77.25;32.53;;;;;;;;;;5033970;28;20060;-78
2022/12/01 02:53:54;;;;;;;74.88;31.13;;;;;;;;;;5034091;28;20515;-78
2022/12/01 02:56:22;;;;;;;76.38;32.17;;;;;;;;;;5033602;28;20042;-78
2022/12/01 02:58:48;;;;;;;75.40;30.83;;;;;;;;;;5033640;28;20061;-78
2022/12/01 03:01:37;;;;;;;80.68;32.00;;;;;;;;;;5033596;28;20056;-78
2022/12/01 03:04:12;;;;;;;77.60;33.15;;;;;;;;;;5031321;28;20053;-78
2022/12/01 03:06:48;;;;;;;83.10;34.05;;;;;;;;;;5032333;28;20049;-78
2022/12/01 03:09:14;;;;;;;;;;;;;;;;;;5033776;28;20064;-78
2022/12/01 03:11:57;;;;;;;76.68;33.25;;;;;;;;;;5032237;28;19921;-78
2022/12/01 03:14:32;;;;;;;82.80;32.35;;;;;;;;;;5032789;28;20050;-78
2022/12/01 03:17:02;;;;;;;79.13;31.77;;;;;;;;;;5032215;28;20385;-78
2022/12/01 03:19:40;;;;;;;72.88;31.05;;;;;;;;;;5017576;28;20104;-78
2022/12/01 03:22:26;;;;;;;68.30;28.40;;;;;;;;;;5014107;28;20042;-78
2022/12/01 03:24:54;;;;;;;61.23;26.10;;;;;;;;;;5014158;28;20536;-78
2022/12/01 03:27:22;;;;;;;63.83;27.38;;;;;;;;;;5013726;28;20461;-78
2022/12/01 03:29:51;;;;;;;75.78;30.40;;;;;;;;;;5013886;28;20468;-77
2022/12/01 03:32:26;;;;;;;69.60;29.25;;;;;;;;;;5012757;28;20129;-77
2022/12/01 03:34:52;;;;;;;68.65;28.13;;;;;;;;;;5013951;28;20123;-77
2022/12/01 03:37:31;;;;;;;61.88;28.00;;;;;;;;;;5016810;28;20427;-77
2022/12/01 03:39:58;;;;;;;71.65;30.85;;;;;;;;;;5033780;28;20120;-77
2022/12/01 03:42:36;;;;;;;68.35;28.95;;;;;;;;;;5033040;28;20045;-77
2022/12/01 03:45:05;;;;;;;69.75;30.42;;;;;;;;;;5031143;28;20117;-77
2022/12/01 03:47:34;;;;;;;77.03;31.83;;;;;;;;;;5028369;28;20041;-78
2022/12/01 03:50:00;;;;;;;67.65;28.60;;;;;;;;;;5032917;28;20484;-78
2022/12/01 03:52:29;;;;;;;61.47;25.48;;;;;;;;;;5032737;28;20495;-78
2022/12/01 03:54:58;;;;;;;61.33;26.75;;;;;;;;;;5022372;28;20041;-78
2022/12/01 03:57:37;;;;;;;56.97;25.02;;;;;;;;;;5013777;28;20096;-78
2022/12/01 04:00:05;;;;;;;56.08;24.50;;;;;;;;;;5013441;28;20469;-78
2022/12/01 04:02:31;;;;;;;68.47;28.25;;;;;;;;;;5013406;28;20045;-78
2022/12/01 04:04:57;;;;;;;64.10;28.13;;;;;;;;;;5013209;28;20131;-78
2022/12/01 04:07:24;;;;;;;64.05;27.60;;;;;;;;;;5013852;28;20117;-78
2022/12/01 04:09:50;;;;;;;65.30;26.80;;;;;;;;;;5026393;28;20045;-78
2022/12/01 04:12:28;;;;;;;61.40;28.10;;;;;;;;;;5033396;28;20042;-78
2022/12/01 04:14:56;;;;;;;65.97;27.15;;;;;;;;;;5032852;28;20138;-78
2022/12/01 04:17:22;;;;;;;63.28;27.80;;;;;;;;;;5032723;28;20060;-78
2022/12/01 04:19:48;;;;;;;60.05;27.60;;;;;;;;;;5031989;28;20080;-78
2022/12/01 04:22:14;;;;;;;71.07;30.15;;;;;;;;;;5032499;28;20514;-78
2022/12/01 04:24:40;;;;;;;71.28;29.60;;;;;;;;;;5033066;28;20128;-78
2022/12/01 04:27:06;;;;;;;76.60;30.30;;;;;;;;;;5032894;28;20129;-78
2022/12/01 04:29:32;;;;;;;71.75;29.35;;;;;;;;;;5031945;28;20057;-78
2022/12/01 04:31:58;;;;;;;79.43;30.35;;;;;;;;;;5032813;28;20052;-78
2022/12/01 04:34:24;;;;;;;72.30;29.77;;;;;;;;;;5032485;28;20476;-78
2022/12/01 04:36:50;;;;;;;69.63;28.65;;;;;;;;;;5027512;28;20084;-78
2022/12/01 04:39:16;;;;;;;76.50;29.02;;;;;;;;;;5037691;28;20141;-78
2022/12/01 04:41:42;;;;;;;70.78;29.08;;;;;;;;;;5052593;28;20385;-78
2022/12/01 04:44:10;;;;;;;68.30;28.30;;;;;;;;;;5052246;28;20071;-78
2022/12/01 04:46:36;;;;;;;69.03;29.92;;;;;;;;;;5052569;28;20534;-78
2022/12/01 04:49:02;;;;;;;74.60;29.85;;;;;;;;;;5052701;28;20041;-78
2022/12/01 04:51:28;;;;;;;66.25;27.95;;;;;;;;;;5048812;28;20045;-78
2022/12/01 04:53:56;;;;;;;67.68;29.55;;;;;;;;;;5033260;28;20045;-78
2022/12/01 04:56:22;;;;;;;70.63;28.33;;;;;;;;;;5035871;28;20042;-78
2022/12/01 04:58:48;;;;;;;69.68;29.77;;;;;;;;;;5036045;28;20060;-78
2022/12/01 05:01:16;;;;;;;69.80;29.23;;;;;;;;;;5035154;28;20072;-78
2022/12/01 05:03:43;;;;;;;68.78;29.48;;;;;;;;;;5036443;28;20053;-78
2022/12/01 05:06:13;;;;;;;66.47;29.02;;;;;;;;;;5035840;28;20502;-78
2022/12/01 05:08:39;;;;;;;64.90;29.73;;;;;;;;;;5016389;28;20485;-78
2022/12/01 05:11:07;;;;;;;74.30;30.05;;;;;;;;;;5025897;28;20077;-78
2022/12/01 05:13:33;;;;;;;61.75;27.67;;;;;;;;;;5036352;28;20049;-78
2022/12/01 05:16:12;;;;;;;64.68;27.63;;;;;;;;;;5036228;28;20052;-78
2022/12/01 05:18:39;;;;;;;68.75;26.95;;;;;;;;;;5034983;28;20053;-78
2022/12/01 05:21:06;;;;;;;60.53;26.10;;;;;;;;;;5036025;28;20053;-78
2022/12/01 05:23:33;;;;;;;56.17;24.95;;;;;;;;;;5035754;28;20116;-78
2022/12/01 05:26:00;;;;;;;57.08;24.58;;;;;;;;;;5034440;28;20487;-78
2022/12/01 05:28:26;;;;;;;65.00;25.75;;;;;;;;;;5034700;28;20053;-78
2022/12/01 05:30:53;;;;;;;61.83;26.00;;;;;;;;;;5023160;28;20054;-78
2022/12/01 05:33:19;;;;;;;57.10;25.33;;;;;;;;;;5015797;28;20038;-78
2022/12/01 05:35:46;;;;;;;58.40;26.35;;;;;;;;;;5015899;28;20441;-78
2022/12/01 05:38:12;;;;;;;54.72;24.15;;;;;;;;;;5015675;28;20076;-78
2022/12/01 05:40:38;;;;;;;49.72;22.38;;;;;;;;;;5030137;28;20084;-78
2022/12/01 05:43:04;;;;;;;50.35;23.67;;;;;;;;;;5020443;28;20045;-78
2022/12/01 05:45:31;;;;;;;48.33;21.48;;;;;;;;;;5029617;28;20125;-78
2022/12/01 05:47:57;;;;;;;37.90;18.63;;;;;;;;;;5018382;28;20411;-78
2022/12/01 05:50:24;;;;;;;43.83;18.15;;;;;;;;;;4998126;28;20485;-79
2022/12/01 05:52:50;;;;;;;31.17;16.73;;;;;;;;;;5015947;28;20109;-78
2022/12/01 05:55:16;;;;;;;31.05;15.70;;;;;;;;;;5033932;28;20049;-79
2022/12/01 05:57:42;;;;;;;35.63;16.45;;;;;;;;;;5035515;28;20049;-78
2022/12/01 06:00:08;;;;;;;27.80;14.40;;;;;;;;;;5034893;28;20156;-78
2022/12/01 06:02:34;;;;;;;28.23;14.75;;;;;;;;;;5035057;28;20080;-78
2022/12/01 06:05:00;;;;;;;26.55;13.68;;;;;;;;;;5034736;28;20095;-78
2022/12/01 06:07:26;;;;;;;25.25;13.18;;;;;;;;;;5035544;28;20055;-78
2022/12/01 06:09:52;;;;;;;24.08;13.05;;;;;;;;;;5018476;28;20049;-78
2022/12/01 06:12:19;;;;;;;25.23;13.55;;;;;;;;;;5016514;28;20042;-78
2022/12/01 06:14:45;;;;;;;22.73;12.95;;;;;;;;;;5015252;28;20126;-79
2022/12/01 06:17:11;;;;;;;21.55;11.98;;;;;;;;;;5014865;28;20050;-78
2022/12/01 06:19:38;;;;;;;24.85;12.30;;;;;;;;;;4998131;28;20050;-79
2022/12/01 06:22:04;;;;;;;20.70;11.60;;;;;;;;;;5017027;28;20405;-78
2022/12/01 06:24:30;;;;;;;21.65;10.90;;;;;;;;;;5036905;28;20085;-78
2022/12/01 06:26:56;;;;;;;21.88;12.40;;;;;;;;;;5017307;28;20049;-78
2022/12/01 06:29:25;;;;;;;21.90;11.98;;;;;;;;;;5034908;28;20141;-78
2022/12/01 06:31:51;;;;;;;20.38;11.15;;;;;;;;;;5035264;28;20046;-78
2022/12/01 06:34:19;;;;;;;21.48;11.40;;;;;;;;;;5034393;28;20454;-79
2022/12/01 06:36:47;;;;;;;21.70;11.40;;;;;;;;;;5034689;28;20550;-78
2022/12/01 06:39:15;;;;;;;22.00;11.40;;;;;;;;;;5034296;28;20037;-78
2022/12/01 06:41:50;;;;;;;20.67;12.18;;;;;;;;;;5033717;28;20487;-78
2022/12/01 06:44:16;;;;;;;20.30;11.68;;;;;;;;;;5034803;28;20099;-78
2022/12/01 06:46:42;;;;;;;20.13;10.88;;;;;;;;;;5034497;28;20077;-78
2022/12/01 06:49:12;;;;;;;21.90;11.32;;;;;;;;;;5034529;28;20534;-79
2022/12/01 06:51:38;;;;;;;21.20;11.55;;;;;;;;;;5036231;28;20053;-79
2022/12/01 06:54:23;;;;;;;;;;;;;;;;;;;;;
2022/12/01 06:56:50;;;;;;;24.35;12.10;;;;;;;;;;5034789;28;20045;-79
2022/12/01 06:59:19;;;;;;;23.58;11.52;;;;;;;;;;5035304;28;20381;-79
2022/12/01 07:01:48;;;;;;;22.50;11.48;;;;;;;;;;5035106;28;20472;-79
2022/12/01 07:04:14;;;;;;;23.90;11.82;;;;;;;;;;5020051;28;20112;-79
2022/12/01 07:06:40;;;;;;;22.05;11.80;;;;;;;;;;5016289;28;20038;-78
2022/12/01 07:09:06;;;;;;;22.88;12.07;;;;;;;;;;5014325;28;20042;-78
2022/12/01 07:11:38;;;;;;;26.88;12.23;;;;;;;;;;5014387;28;20045;-78
2022/12/01 07:14:11;;;;;;;24.88;12.48;;;;;;;;;;5022721;28;20450;-78
2022/12/01 07:16:37;;;;;;;20.13;11.55;;;;;;;;;;5034384;28;20112;-78
2022/12/01 07:19:09;;;;;;;25.15;12.20;;;;;;;;;;5035357;28;20041;-79
2022/12/01 07:21:35;;;;;;;20.58;11.02;;;;;;;;;;5025604;28;20033;-79
2022/12/01 07:24:01;;;;;;;21.13;11.10;;;;;;;;;;5022759;28;20067;-79
2022/12/01 07:26:27;;;;;;;22.88;11.95;;;;;;;;;;5017793;28;20042;-79
2022/12/01 07:28:55;;;;;;;22.70;11.82;;;;;;;;;;5026998;28;20048;-79
2022/12/01 07:31:25;;;;;;;24.08;12.07;;;;;;;;;;5037808;28;20049;-80
2022/12/01 07:33:51;;;;;;;19.65;10.73;;;;;;;;;;5038055;28;20060;-79
2022/12/01 07:36:20;;;;;;;21.02;11.10;;;;;;;;;;5038020;28;20111;-79
2022/12/01 07:38:46;;;;;;;23.48;11.93;;;;;;;;;;5031866;28;20627;-80
2022/12/01 07:41:14;;;;;;;20.52;11.98;;;;;;;;;;5035311;28;20053;-79
2022/12/01 07:43:40;;;;;;;20.48;11.63;;;;;;;;;;5037717;28;20042;-79
2022/12/01 07:46:14;;;;;;;19.73;10.90;;;;;;;;;;5035220;28;20488;-79
2022/12/01 07:48:40;;;;;;;21.75;12.13;;;;;;;;;;5037595;28;20041;-79
2022/12/01 07:51:07;;;;;;;20.50;11.52;;;;;;;;;;5036256;28;20049;-79
2022/12/01 07:53:34;;;;;;;20.00;11.48;;;;;;;;;;5034872;28;20038;-79
2022/12/01 07:56:00;;;;;;;23.92;12.48;;;;;;;;;;5034778;28;20056;-79
2022/12/01 07:58:26;;;;;;;22.13;11.75;;;;;;;;;;5036053;28;20076;-79
2022/12/01 08:00:52;;;;;;;22.38;11.43;;;;;;;;;;5034676;28;20056;-79
2022/12/01 08:03:19;;;;;;;24.83;11.48;;;;;;;;;;5036998;28;20049;-79
2022/12/01 08:05:45;;;;;;;21.85;10.85;;;;;;;;;;5032892;28;20099;-79
2022/12/01 08:08:11;;;;;;;18.02;10.30;;;;;;;;;;5031831;28;20056;-80
2022/12/01 08:10:37;;;;;;;22.83;11.52;;;;;;;;;;5037206;28;20045;-80
2022/12/01 08:13:03;;;;;;;20.15;10.95;;;;;;;;;;5037335;28;20041;-79
2022/12/01 08:15:29;;;;;;;21.25;11.23;;;;;;;;;;5023569;28;20046;-78
2022/12/01 08:17:55;;;;;;;18.20;10.60;;;;;;;;;;5016310;28;20058;-80
2022/12/01 08:20:21;;;;;;;18.05;10.52;;;;;;;;;;5034661;28;20050;-78
2022/12/01 08:22:47;;;;;;;17.83;10.70;;;;;;;;;;5021415;28;20045;-79
2022/12/01 08:25:14;;;;;;;22.42;10.82;;;;;;;;;;5026813;28;20491;-79
2022/12/01 08:27:40;;;;;;;19.08;11.23;;;;;;;;;;5061003;28;20076;-78
2022/12/01 08:30:06;;;;;;;21.23;10.82;;;;;;;;;;5064333;28;20048;-79
2022/12/01 08:32:32;;;;;;;24.05;11.50;;;;;;;;;;5054295;28;20407;-79
2022/12/01 08:34:58;;;;;;;18.90;10.07;;;;;;;;;;5043181;28;20042;-78
2022/12/01 08:37:24;;;;;;;17.67;9.93;;;;;;;;;;5027501;28;20463;-78
2022/12/01 08:39:50;;;;;;;18.35;10.60;;;;;;;;;;5028452;28;20049;-79
2022/12/01 08:42:16;;;;;;;19.23;10.77;;;;;;;;;;5026542;28;20068;-79
2022/12/01 08:44:43;;;;;;;17.63;9.90;;;;;;;;;;5023197;28;20053;-79
2022/12/01 08:47:09;;;;;;;17.23;10.45;;;;;;;;;;5023374;28;20099;-79
2022/12/01 08:49:35;;;;;;;22.05;10.30;;;;;;;;;;5022670;28;20042;-79
2022/12/01 08:52:01;;;;;;;18.83;9.50;;;;;;;;;;5042455;28;20075;-79
2022/12/01 08:54:27;;;;;;;16.55;9.63;;;;;;;;;;5043490;28;20042;-79
2022/12/01 08:56:53;;;;;;;19.98;10.73;;;;;;;;;;5046749;28;20038;-78
2022/12/01 08:59:19;;;;;;;18.85;10.00;;;;;;;;;;5049719;28;20047;-79
2022/12/01 09:01:51;;;;;;;17.92;9.38;;;;;;;;;;5048783;28;20053;-80
2022/12/01 09:04:18;;;;;;;17.75;9.85;;;;;;;;;;5044878;28;20495;-79
2022/12/01 09:06:45;;;;;;;17.60;9.68;;;;;;;;;;5041239;28;20072;-79
2022/12/01 09:09:16;;;;;;;19.70;9.73;;;;;;;;;;5041006;28;20041;-78
2022/12/01 09:11:42;;;;;;;18.08;9.60;;;;;;;;;;5040289;28;20403;-78
2022/12/01 09:14:08;;;;;;;18.58;10.07;;;;;;;;;;5030904;28;20108;-78
2022/12/01 09:16:35;;;;;;;17.38;9.90;;;;;;;;;;5035163;28;20041;-79
2022/12/01 09:19:01;;;;;;;17.67;10.38;;;;;;;;;;5034106;28;20065;-79
2022/12/01 09:21:31;;;;;;;17.83;9.75;;;;;;;;;;5019910;28;20507;-79
2022/12/01 09:23:58;;;;;;;18.85;9.18;;;;;;;;;;5026875;28;20045;-79
2022/12/01 09:26:24;;;;;;;17.20;8.93;;;;;;;;;;5038995;28;20050;-78
2022/12/01 09:28:54;;;;;;;18.77;10.25;;;;;;;;;;5035514;28;20053;-79
2022/12/01 09:31:22;;;;;;;15.55;9.00;;;;;;;;;;5019004;28;20046;-79
2022/12/01 09:33:48;;;;;;;18.00;9.27;;;;;;;;;;5021401;28;20058;-79
2022/12/01 09:36:14;;;;;;;16.02;9.25;;;;;;;;;;5021257;28;20158;-79
2022/12/01 09:38:40;;;;;;;16.27;9.75;;;;;;;;;;5032592;28;20526;-79
2022/12/01 09:41:26;;;;;;;16.42;9.85;;;;;;;;;;5037870;28;20087;-79
2022/12/01 09:43:55;;;;;;;18.92;10.07;;;;;;;;;;5037381;28;20045;-79
2022/12/01 09:46:24;;;;;;;19.35;10.43;;;;;;;;;;5037438;28;20125;-77
2022/12/01 09:48:52;;;;;;;17.55;9.80;;;;;;;;;;5034543;28;20487;-77
2022/12/01 09:51:22;;;;;;;19.25;9.70;;;;;;;;;;5036586;28;20140;-77
2022/12/01 09:53:49;;;;;;;15.35;9.70;;;;;;;;;;5036035;28;20404;-77
2022/12/01 09:56:20;;;;;;;16.70;9.48;;;;;;;;;;5035955;28;20037;-78
2022/12/01 09:58:48;;;;;;;17.15;9.80;;;;;;;;;;5035665;28;20045;-78
2022/12/01 10:01:16;;;;;;;18.10;10.55;;;;;;;;;;5035667;28;20491;-78
2022/12/01 10:04:04;;;;;;;18.63;10.07;;;;;;;;;;5024137;28;20049;-79
2022/12/01 10:06:43;;;;;;;16.55;9.80;;;;;;;;;;5039419;28;20480;-77
2022/12/01 10:09:27;;;;;;;19.58;10.77;;;;;;;;;;5038509;28;20033;-78
2022/12/01 10:11:56;;;;;;;18.15;10.27;;;;;;;;;;5035890;28;20041;-78
2022/12/01 10:14:22;;;;;;;19.83;10.90;;;;;;;;;;5033262;28;20077;-78
2022/12/01 10:16:54;;;;;;;18.85;10.68;;;;;;;;;;5034071;28;20129;-78
2022/12/01 10:19:27;;;;;;;20.48;11.02;;;;;;;;;;5033171;28;20507;-78
2022/12/01 10:21:59;;;;;;;18.38;10.38;;;;;;;;;;5034886;28;20046;-78
2022/12/01 10:25:03;;;;;;;18.73;10.77;;;;;;;;;;5039029;28;20049;-78
2022/12/01 10:27:48;;;;;;;16.02;9.75;;;;;;;;;;4995772;28;20538;-78
2022/12/01 10:30:16;;;;;;;15.82;9.48;;;;;;;;;;5012311;28;20053;-78
2022/12/01 10:32:44;;;;;;;15.32;9.77;;;;;;;;;;4996100;28;20566;-78
2022/12/01 10:35:14;;;;;;;15.73;9.27;;;;;;;;;;5012142;28;20149;-78
2022/12/01 10:37:41;;;;;;;16.60;9.60;;;;;;;;;;5012343;28;20042;-78
2022/12/01 10:40:12;;;;;;;16.42;9.32;;;;;;;;;;4979153;28;20120;-78
2022/12/01 10:42:42;;;;;;;12.73;8.55;;;;;;;;;;5012388;28;20046;-78
2022/12/01 10:45:16;;;;;;;12.20;8.50;;;;;;;;;;5012064;28;20149;-78
2022/12/01 10:48:01;;;;;;;15.73;8.75;;;;;;;;;;5012677;28;20473;-78
2022/12/01 10:50:27;;;;;;;14.70;8.95;;;;;;;;;;5012778;28;20512;-78
2022/12/01 10:52:53;;;;;;;13.65;8.10;;;;;;;;;;4979896;28;20107;-78
2022/12/01 10:55:22;;;;;;;15.40;8.95;;;;;;;;;;4995480;28;20042;-78
2022/12/01 10:57:48;;;;;;;14.35;7.82;;;;;;;;;;5019871;28;20053;-78
2022/12/01 11:00:24;;;;;;;13.10;7.53;;;;;;;;;;5033901;28;20508;-78
2022/12/01 11:02:50;;;;;;;13.18;8.48;;;;;;;;;;5034341;28;20472;-78
2022/12/01 11:05:33;;;;;;;12.32;7.63;;;;;;;;;;5034123;28;20053;-79
2022/12/01 11:07:59;;;;;;;13.70;7.80;;;;;;;;;;5031713;28;20104;-78
2022/12/01 11:10:27;;;;;;;12.13;7.95;;;;;;;;;;5033755;28;20595;-79
2022/12/01 11:12:58;;;;;;;13.05;8.68;;;;;;;;;;5037359;28;20091;-79
2022/12/01 11:15:31;;;;;;;15.43;9.13;;;;;;;;;;5034820;28;20160;-79
2022/12/01 11:18:02;;;;;;;16.10;10.10;;;;;;;;;;5033770;28;20057;-78
2022/12/01 11:20:36;;;;;;;17.35;10.10;;;;;;;;;;5035204;28;20081;-79
2022/12/01 11:23:19;;;;;;;13.15;8.90;;;;;;;;;;5013467;28;20408;-78
2022/12/01 11:26:04;;;;;;;13.32;8.93;;;;;;;;;;5031381;28;20132;-79
2022/12/01 11:28:31;;;;;;;14.85;9.30;;;;;;;;;;5021741;28;20046;-78
2022/12/01 11:30:58;;;;;;;13.80;9.10;;;;;;;;;;5029876;28;20512;-78
2022/12/01 11:33:25;;;;;;;14.68;9.02;;;;;;;;;;5028196;28;20050;-78
2022/12/01 11:35:54;;;;;;;16.00;10.38;;;;;;;;;;5035096;28;20071;-79
2022/12/01 11:38:22;;;;;;;15.65;10.18;;;;;;;;;;5034445;28;20037;-79
2022/12/01 11:40:49;;;;;;;15.27;9.85;;;;;;;;;;5035913;28;20077;-78
2022/12/01 11:43:21;;;;;;;15.32;10.48;;;;;;;;;;5035348;28;20049;-79
2022/12/01 11:45:47;;;;;;;14.68;9.40;;;;;;;;;;5033814;28;20042;-80
2022/12/01 11:48:14;;;;;;;14.35;9.07;;;;;;;;;;5031542;28;20053;-79
2022/12/01 11:50:42;;;;;;;14.35;9.95;;;;;;;;;;5038875;28;20053;-79
2022/12/01 11:53:37;;;;;;;13.13;8.75;;;;;;;;;;5039725;28;20073;-79
2022/12/01 11:56:27;;;;;;;15.60;10.40;;;;;;;;;;5039455;28;20087;-79
2022/12/01 11:59:00;;;;;;;13.60;8.70;;;;;;;;;;5033241;28;20104;-79
2022/12/01 12:01:35;;;;;;;12.18;8.68;;;;;;;;;;5010009;28;20042;-79
2022/12/01 12:04:04;;;;;;;11.13;7.53;;;;;;;;;;5047406;28;20546;-79
2022/12/01 12:06:48;;;;;;;11.43;8.05;;;;;;;;;;5039643;28;20056;-79
2022/12/01 12:09:14;;;;;;;12.00;7.80;;;;;;;;;;5026088;28;20516;-79
2022/12/01 12:11:48;;;;;;;12.10;7.95;;;;;;;;;;5026237;28;20045;-79
2022/12/01 12:14:33;;;;;;;13.45;8.75;;;;;;;;;;5050483;28;20121;-79
2022/12/01 12:17:02;;;;;;;12.30;8.13;;;;;;;;;;5042149;28;20061;-79
2022/12/01 12:19:38;;;;;;;10.73;7.35;;;;;;;;;;5051029;28;20049;-80
2022/12/01 12:22:13;;;;;;;10.73;7.20;;;;;;;;;;5051271;28;20045;-79
2022/12/01 12:24:57;;;;;;;10.38;6.70;;;;;;;;;;5051067;28;20049;-79
2022/12/01 12:27:31;;;;;;;11.40;7.50;;;;;;;;;;5031149;28;20049;-79
2022/12/01 12:29:57;;;;;;;11.35;7.28;;;;;;;;;;5038687;28;20058;-79
2022/12/01 12:32:33;;;;;;;10.00;7.03;;;;;;;;;;5044349;28;20432;-80
2022/12/01 12:35:05;;;;;;;11.77;7.80;;;;;;;;;;5033917;28;20089;-79
2022/12/01 12:37:37;;;;;;;11.55;7.78;;;;;;;;;;5041371;28;20045;-80
2022/12/01 12:40:03;;;;;;;13.85;8.32;;;;;;;;;;5033025;28;20061;-80
2022/12/01 12:42:35;;;;;;;12.25;8.20;;;;;;;;;;5036597;28;20395;-79
2022/12/01 12:45:10;;;;;;;13.07;8.52;;;;;;;;;;5045401;28;20038;-79
2022/12/01 12:47:39;;;;;;;12.02;8.43;;;;;;;;;;5037283;28;20073;-80
2022/12/01 12:50:06;;;;;;;15.60;9.10;;;;;;;;;;5043961;28;20392;-80
2022/12/01 12:52:43;;;;;;;13.32;9.32;;;;;;;;;;5047816;28;20049;-80
2022/12/01 12:55:20;;;;;;;14.43;8.60;;;;;;;;;;5040482;28;20145;-80
2022/12/01 12:57:49;;;;;;;12.88;9.10;;;;;;;;;;5035123;28;20038;-80
2022/12/01 13:00:20;;;;;;;14.95;8.93;;;;;;;;;;5035574;28;20078;-80
2022/12/01 13:02:48;;;;;;;15.38;8.77;;;;;;;;;;5033192;28;20500;-80
2022/12/01 13:05:42;;;;;;;13.30;8.25;;;;;;;;;;5047165;28;20071;-80
2022/12/01 13:08:21;;;;;;;13.68;8.32;;;;;;;;;;5033733;28;20061;-79
2022/12/01 13:11:02;;;;;;;19.75;9.32;;;;;;;;;;5033730;28;20045;-79
2022/12/01 13:13:47;;;;;;;14.23;8.98;;;;;;;;;;5028732;28;20050;-79
2022/12/01 13:16:21;;;;;;;13.20;8.43;;;;;;;;;;5031072;28;20049;-79
2022/12/01 13:18:58;;;;;;;14.27;8.50;;;;;;;;;;5042231;28;20068;-79
2022/12/01 13:21:34;;;;;;;12.60;8.90;;;;;;;;;;5041289;28;20390;-78
2022/12/01 13:24:00;;;;;;;11.45;8.15;;;;;;;;;;5044407;28;20048;-79
2022/12/01 13:26:30;;;;;;;15.48;9.45;;;;;;;;;;5044812;28;20065;-80
2022/12/01 13:28:57;;;;;;;15.35;9.45;;;;;;;;;;5032865;28;20373;-79
2022/12/01 13:31:23;;;;;;;14.43;9.88;;;;;;;;;;5039366;28;20125;-79
2022/12/01 13:33:58;;;;;;;14.75;9.52;;;;;;;;;;5036648;28;20048;-79
2022/12/01 13:36:24;;;;;;;13.73;9.38;;;;;;;;;;5030769;28;20057;-79
2022/12/01 13:39:02;;;;;;;17.70;11.18;;;;;;;;;;5041139;28;20637;-79
2022/12/01 13:41:30;;;;;;;17.50;10.98;;;;;;;;;;5044931;28;20107;-79
2022/12/01 13:43:56;;;;;;;20.23;11.70;;;;;;;;;;5044810;28;20464;-79
2022/12/01 13:46:24;;;;;;;20.35;12.32;;;;;;;;;;5043389;28;20041;-78
2022/12/01 13:48:52;;;;;;;18.88;12.57;;;;;;;;;;5042279;28;20053;-79
2022/12/01 13:51:18;;;;;;;20.20;12.27;;;;;;;;;;5047959;28;20053;-79
2022/12/01 13:54:04;;;;;;;22.08;12.40;;;;;;;;;;5033552;28;20079;-78
2022/12/01 13:56:33;;;;;;;22.40;12.35;;;;;;;;;;5038827;28;20100;-79
2022/12/01 13:58:59;;;;;;;22.30;12.32;;;;;;;;;;5044446;28;20045;-79
2022/12/01 14:01:25;;;;;;;20.35;12.50;;;;;;;;;;5035395;28;20176;-79
2022/12/01 14:03:53;;;;;;;19.00;11.85;;;;;;;;;;5048484;28;20045;-79
2022/12/01 14:06:24;;;;;;;21.02;13.15;;;;;;;;;;5042737;28;20097;-79
2022/12/01 14:08:52;;;;;;;22.23;12.45;;;;;;;;;;5042448;28;20069;-79
2022/12/01 14:11:31;;;;;;;21.15;12.13;;;;;;;;;;5039498;28;20042;-77
2022/12/01 14:14:01;;;;;;;19.23;13.25;;;;;;;;;;5029914;28;20053;-78
2022/12/01 14:16:45;;;;;;;23.33;13.15;;;;;;;;;;5030755;28;20041;-78
2022/12/01 14:19:30;;;;;;;20.02;12.68;;;;;;;;;;5028135;28;20050;-78
2022/12/01 14:21:56;;;;;;;22.45;13.15;;;;;;;;;;5026682;28;20037;-81
2022/12/01 14:24:26;;;;;;;25.40;14.38;;;;;;;;;;5042870;28;20046;-80
2022/12/01 14:26:53;;;;;;;24.00;13.10;;;;;;;;;;5026500;28;20046;-80
2022/12/01 14:29:31;;;;;;;26.80;15.55;;;;;;;;;;5027399;28;20073;-81
2022/12/01 14:32:00;;;;;;;32.50;15.32;;;;;;;;;;5047653;28;20045;-81
2022/12/01 14:34:29;;;;;;;27.98;15.82;;;;;;;;;;5045522;28;20038;-81
2022/12/01 14:37:10;;;;;;;33.55;18.02;;;;;;;;;;5046275;28;20046;-80
2022/12/01 14:39:38;;;;;;;36.00;18.70;;;;;;;;;;5059458;28;20045;-80